Time,TemperatureF,DewpointF,PressureIn,WindDirection,WindDirectionDegrees,WindSpeedMPH,WindSpeedGustMPH,Humidity,HourlyPrecipIn,Conditions,Clouds,dailyrainin,SoftwareType,DateUTC
2013-04-03 00:00:00,64.4,61.4,30.12,WSW,248,0.0,0.0,90,0.00,,---,0.00,VWS V14.01,2013-04-02 22:00:00,
2013-04-03 00:04:00,64.2,61.2,30.12,WSW,248,0.0,0.0,90,0.00,,---,0.00,VWS V14.01,2013-04-02 22:04:00,
2013-04-03 00:06:00,64.2,61.2,30.12,WSW,248,0.0,0.0,90,0.00,,---,0.00,VWS V14.01,2013-04-02 22:06:00,
2013-04-03 00:09:00,64.2,61.2,30.12,WSW,248,0.0,0.0,90,0.00,,---,0.00,VWS V14.01,2013-04-02 22:09:00,
2013-04-03 00:11:00,64.2,61.2,30.12,WSW,248,0.0,0.0,90,0.00,,---,0.00,VWS V14.01,2013-04-02 22:11:00,
2013-04-03 00:16:00,64.2,61.2,30.12,West,270,0.0,0.0,90,0.00,,---,0.00,VWS V14.01,2013-04-02 22:16:00,
2013-04-03 00:19:00,64.0,61.0,30.12,WSW,248,0.0,0.0,90,0.00,,---,0.00,VWS V14.01,2013-04-02 22:19:00,
2013-04-03 00:22:00,63.9,60.6,30.12,WSW,248,0.0,0.0,89,0.00,,---,0.00,VWS V14.01,2013-04-02 22:22:00,
2013-04-03 00:26:00,63.9,60.6,30.12,West,270,0.0,0.0,89,0.00,,---,0.00,VWS V14.01,2013-04-02 22:26:00,
2013-04-03 00:31:00,63.9,60.9,30.12,WSW,248,0.0,0.0,90,0.00,,---,0.00,VWS V14.01,2013-04-02 22:31:00,
2013-04-03 00:32:00,63.9,60.9,30.12,West,270,0.0,0.0,90,0.00,,---,0.00,VWS V14.01,2013-04-02 22:32:00,
2013-04-03 00:34:00,63.9,60.9,30.12,WSW,248,0.0,0.0,90,0.00,,---,0.00,VWS V14.01,2013-04-02 22:34:00,
2013-04-03 00:36:00,63.9,60.9,30.12,West,270,0.0,0.0,90,0.00,,---,0.00,VWS V14.01,2013-04-02 22:36:00,
2013-04-03 00:39:00,64.2,61.2,30.12,West,270,0.0,0.0,90,0.00,,---,0.00,VWS V14.01,2013-04-02 22:39:00,
2013-04-03 00:40:00,64.2,61.2,30.12,WNW,292,0.0,0.0,90,0.00,,---,0.00,VWS V14.01,2013-04-02 22:40:00,
2013-04-03 00:44:00,64.4,61.4,30.12,WSW,248,0.0,0.0,90,0.00,,---,0.00,VWS V14.01,2013-04-02 22:44:00,
2013-04-03 00:45:00,64.4,61.4,30.12,WSW,248,0.0,0.0,90,0.00,,---,0.00,VWS V14.01,2013-04-02 22:45:00,
2013-04-03 00:49:00,64.2,61.5,30.12,SSW,202,0.0,0.0,91,0.00,,---,0.00,VWS V14.01,2013-04-02 22:49:00,
2013-04-03 00:50:00,64.2,61.5,30.12,WSW,248,0.0,0.0,91,0.00,,---,0.00,VWS V14.01,2013-04-02 22:50:00,
2013-04-03 00:52:00,64.0,61.0,30.12,West,270,0.0,0.0,90,0.00,,---,0.00,VWS V14.01,2013-04-02 22:52:00,
2013-04-03 00:54:00,63.9,60.9,30.12,West,270,0.0,0.0,90,0.00,,---,0.00,VWS V14.01,2013-04-02 22:54:00,
2013-04-03 00:58:00,64.2,61.5,30.12,West,270,0.0,0.0,91,0.00,,---,0.00,VWS V14.01,2013-04-02 22:58:00,
2013-04-03 01:00:00,64.4,61.7,30.12,West,270,0.0,0.0,91,0.00,,---,0.00,VWS V14.01,2013-04-02 23:00:00,
2013-04-03 01:05:00,64.4,61.7,30.12,West,270,0.0,0.0,91,0.00,,---,0.00,VWS V14.01,2013-04-02 23:05:00,
2013-04-03 01:06:00,64.6,61.9,30.12,West,270,0.0,0.0,91,0.00,,---,0.00,VWS V14.01,2013-04-02 23:06:00,
2013-04-03 01:08:00,64.6,62.2,30.12,WSW,248,0.0,0.0,92,0.00,,---,0.00,VWS V14.01,2013-04-02 23:08:00,
2013-04-03 01:10:00,64.8,62.4,30.12,WSW,248,0.0,0.0,92,0.00,,---,0.00,VWS V14.01,2013-04-02 23:10:00,
2013-04-03 01:14:00,64.9,62.6,30.12,WNW,292,0.0,0.0,92,0.00,,---,0.00,VWS V14.01,2013-04-02 23:14:00,
2013-04-03 01:15:00,64.9,62.6,30.12,WSW,248,0.0,0.0,92,0.00,,---,0.00,VWS V14.01,2013-04-02 23:15:00,
2013-04-03 01:16:00,64.9,62.6,30.12,West,270,0.0,0.0,92,0.00,,---,0.00,VWS V14.01,2013-04-02 23:16:00,
2013-04-03 01:20:00,64.9,62.6,30.12,West,270,0.0,0.0,92,0.00,,---,0.00,VWS V14.01,2013-04-02 23:20:00,
2013-04-03 01:21:00,65.1,62.7,30.12,WSW,248,0.0,0.0,92,0.00,,---,0.00,VWS V14.01,2013-04-02 23:21:00,
2013-04-03 01:25:00,65.1,62.7,30.12,WSW,248,0.0,0.0,92,0.00,,---,0.00,VWS V14.01,2013-04-02 23:25:00,
2013-04-03 01:27:00,65.1,62.7,30.12,WSW,248,0.0,0.0,92,0.00,,---,0.00,VWS V14.01,2013-04-02 23:27:00,
2013-04-03 01:28:00,65.1,63.0,30.12,WSW,248,0.0,0.0,93,0.00,,---,0.00,VWS V14.01,2013-04-02 23:28:00,
2013-04-03 01:32:00,65.5,63.4,30.12,WSW,248,0.0,0.0,93,0.00,,---,0.00,VWS V14.01,2013-04-02 23:32:00,
2013-04-03 01:33:00,65.3,63.2,30.12,West,270,0.0,0.0,93,0.00,,---,0.00,VWS V14.01,2013-04-02 23:33:00,
2013-04-03 01:34:00,65.3,63.2,30.12,WSW,248,0.0,0.0,93,0.00,,---,0.00,VWS V14.01,2013-04-02 23:34:00,
2013-04-03 01:39:00,65.3,63.2,30.12,WSW,248,0.0,0.0,93,0.00,,---,0.00,VWS V14.01,2013-04-02 23:39:00,
2013-04-03 01:41:00,65.5,63.4,30.12,WSW,248,0.0,0.0,93,0.00,,---,0.00,VWS V14.01,2013-04-02 23:41:00,
2013-04-03 01:42:00,65.5,63.4,30.12,WSW,248,0.0,0.0,93,0.00,,---,0.00,VWS V14.01,2013-04-02 23:42:00,
2013-04-03 01:47:00,65.7,63.6,30.09,WSW,248,0.0,0.0,93,0.00,,---,0.00,VWS V14.01,2013-04-02 23:47:00,
2013-04-03 01:48:00,65.5,63.4,30.09,ENE,68,0.0,0.0,93,0.00,,---,0.00,VWS V14.01,2013-04-02 23:48:00,
2013-04-03 01:49:00,65.5,63.4,30.09,WSW,248,0.0,0.0,93,0.00,,---,0.00,VWS V14.01,2013-04-02 23:49:00,
2013-04-03 01:54:00,65.8,64.1,30.09,West,270,0.0,0.0,94,0.00,,---,0.00,VWS V14.01,2013-04-02 23:54:00,
2013-04-03 01:59:00,66.2,64.4,30.12,West,270,0.0,0.0,94,0.00,,---,0.00,VWS V14.01,2013-04-02 23:59:00,
2013-04-03 02:04:00,66.2,64.4,30.12,WSW,248,0.0,0.0,94,0.00,,---,0.00,VWS V14.01,2013-04-03 00:04:00,
2013-04-03 02:08:00,66.4,64.6,30.12,WSW,248,0.0,0.0,94,0.00,,---,0.00,VWS V14.01,2013-04-03 00:08:00,
2013-04-03 02:09:00,66.4,64.6,30.12,WSW,248,0.0,0.0,94,0.00,,---,0.00,VWS V14.01,2013-04-03 00:09:00,
2013-04-03 02:10:00,66.4,64.6,30.12,WNW,292,0.0,0.0,94,0.00,,---,0.00,VWS V14.01,2013-04-03 00:10:00,
2013-04-03 02:15:00,66.4,64.6,30.12,West,270,0.0,0.0,94,0.00,,---,0.00,VWS V14.01,2013-04-03 00:15:00,
2013-04-03 02:16:00,66.4,64.6,30.12,WSW,248,0.0,0.0,94,0.00,,---,0.00,VWS V14.01,2013-04-03 00:16:00,
2013-04-03 02:20:00,66.4,64.6,30.12,WSW,248,0.0,0.0,94,0.00,,---,0.00,VWS V14.01,2013-04-03 00:20:00,
2013-04-03 02:22:00,66.4,64.6,30.12,WSW,248,0.0,0.0,94,0.00,,---,0.00,VWS V14.01,2013-04-03 00:22:00,
2013-04-03 02:26:00,66.6,64.8,30.12,WNW,292,0.0,0.0,94,0.00,,---,0.00,VWS V14.01,2013-04-03 00:26:00,
2013-04-03 02:28:00,66.6,64.8,30.12,WSW,248,0.0,0.0,94,0.00,,---,0.00,VWS V14.01,2013-04-03 00:28:00,
2013-04-03 02:33:00,66.6,64.8,30.12,WSW,248,0.0,0.0,94,0.00,,---,0.00,VWS V14.01,2013-04-03 00:33:00,
2013-04-03 02:34:00,66.6,64.8,30.12,WSW,248,0.0,0.0,94,0.00,,---,0.00,VWS V14.01,2013-04-03 00:34:00,
2013-04-03 02:35:00,66.6,64.8,30.12,WSW,248,0.0,0.0,94,0.00,,---,0.00,VWS V14.01,2013-04-03 00:35:00,
2013-04-03 02:38:00,66.4,64.6,30.12,WSW,248,0.0,0.0,94,0.00,,---,0.00,VWS V14.01,2013-04-03 00:38:00,
2013-04-03 02:40:00,66.2,64.4,30.12,WSW,248,0.0,0.0,94,0.00,,---,0.00,VWS V14.01,2013-04-03 00:40:00,
2013-04-03 02:42:00,66.2,64.1,30.12,WNW,292,0.0,0.0,93,0.00,,---,0.00,VWS V14.01,2013-04-03 00:42:00,
2013-04-03 02:47:00,65.8,63.8,30.12,WSW,248,0.0,0.0,93,0.00,,---,0.00,VWS V14.01,2013-04-03 00:47:00,
2013-04-03 02:48:00,65.8,63.8,30.12,WSW,248,0.0,0.0,93,0.00,,---,0.00,VWS V14.01,2013-04-03 00:48:00,
2013-04-03 02:49:00,65.8,63.8,30.12,WSW,248,0.0,0.0,93,0.00,,---,0.00,VWS V14.01,2013-04-03 00:49:00,
2013-04-03 02:54:00,65.7,63.6,30.12,WSW,248,0.0,0.0,93,0.00,,---,0.00,VWS V14.01,2013-04-03 00:54:00,
2013-04-03 02:56:00,65.7,63.6,30.09,WSW,248,0.0,0.0,93,0.00,,---,0.00,VWS V14.01,2013-04-03 00:56:00,
2013-04-03 02:59:00,65.5,63.4,30.09,WSW,248,0.0,0.0,93,0.00,,---,0.00,VWS V14.01,2013-04-03 00:59:00,
2013-04-03 03:00:00,65.5,63.4,30.09,West,270,0.0,0.0,93,0.00,,---,0.00,VWS V14.01,2013-04-03 01:00:00,
2013-04-03 03:04:00,65.5,63.1,30.09,WSW,248,0.0,0.0,92,0.00,,---,0.00,VWS V14.01,2013-04-03 01:04:00,
2013-04-03 03:06:00,65.5,63.1,30.09,West,270,0.0,0.0,92,0.00,,---,0.00,VWS V14.01,2013-04-03 01:06:00,
2013-04-03 03:08:00,65.5,63.1,30.09,WNW,292,0.0,0.0,92,0.00,,---,0.00,VWS V14.01,2013-04-03 01:08:00,
2013-04-03 03:12:00,65.3,62.9,30.09,WNW,292,0.0,0.0,92,0.00,,---,0.00,VWS V14.01,2013-04-03 01:12:00,
2013-04-03 03:15:00,65.1,62.7,30.09,WSW,248,0.0,0.0,92,0.00,,---,0.00,VWS V14.01,2013-04-03 01:15:00,
2013-04-03 03:16:00,64.9,62.6,30.09,WSW,248,0.0,0.0,92,0.00,,---,0.00,VWS V14.01,2013-04-03 01:16:00,
2013-04-03 03:17:00,64.9,62.6,30.09,WSW,248,0.0,0.0,92,0.00,,---,0.00,VWS V14.01,2013-04-03 01:17:00,
2013-04-03 03:20:00,64.9,62.6,30.09,WSW,248,0.0,0.0,92,0.00,,---,0.00,VWS V14.01,2013-04-03 01:20:00,
2013-04-03 03:22:00,64.9,62.6,30.09,WSW,248,0.0,0.0,92,0.00,,---,0.00,VWS V14.01,2013-04-03 01:22:00,
2013-04-03 03:24:00,64.8,62.4,30.09,West,270,0.0,0.0,92,0.00,,---,0.00,VWS V14.01,2013-04-03 01:24:00,
2013-04-03 03:29:00,64.6,61.9,30.09,WNW,292,0.0,0.0,91,0.00,,---,0.00,VWS V14.01,2013-04-03 01:29:00,
2013-04-03 03:30:00,64.6,61.9,30.09,West,270,0.0,0.0,91,0.00,,---,0.00,VWS V14.01,2013-04-03 01:30:00,
2013-04-03 03:32:00,64.6,61.9,30.09,WSW,248,0.0,0.0,91,0.00,,---,0.00,VWS V14.01,2013-04-03 01:32:00,
2013-04-03 03:35:00,64.4,61.7,30.09,WSW,248,0.0,0.0,91,0.00,,---,0.00,VWS V14.01,2013-04-03 01:35:00,
2013-04-03 03:37:00,64.4,61.7,30.09,WSW,248,0.0,0.0,91,0.00,,---,0.00,VWS V14.01,2013-04-03 01:37:00,
2013-04-03 03:42:00,64.2,61.5,30.09,WSW,248,0.0,0.0,91,0.00,,---,0.00,VWS V14.01,2013-04-03 01:42:00,
2013-04-03 03:43:00,64.2,61.8,30.09,WSW,248,0.0,0.0,92,0.00,,---,0.00,VWS V14.01,2013-04-03 01:43:00,
2013-04-03 03:44:00,64.2,61.8,30.09,West,270,0.0,0.0,92,0.00,,---,0.00,VWS V14.01,2013-04-03 01:44:00,
2013-04-03 03:49:00,64.2,61.8,30.09,SSW,202,0.0,0.0,92,0.00,,---,0.00,VWS V14.01,2013-04-03 01:49:00,
2013-04-03 03:50:00,64.4,61.7,30.09,WSW,248,0.0,0.0,91,0.00,,---,0.00,VWS V14.01,2013-04-03 01:50:00,
2013-04-03 03:55:00,64.6,62.2,30.09,West,270,0.0,0.0,92,0.00,,---,0.00,VWS V14.01,2013-04-03 01:55:00,
2013-04-03 03:56:00,64.6,62.2,30.09,WSW,248,0.0,0.0,92,0.00,,---,0.00,VWS V14.01,2013-04-03 01:56:00,
2013-04-03 03:58:00,64.6,62.2,30.09,WSW,248,0.0,0.0,92,0.00,,---,0.00,VWS V14.01,2013-04-03 01:58:00,
2013-04-03 04:01:00,64.8,62.4,30.09,West,270,0.0,0.0,92,0.00,,---,0.00,VWS V14.01,2013-04-03 02:01:00,
2013-04-03 04:06:00,64.6,62.2,30.09,West,270,0.0,0.0,92,0.00,,---,0.00,VWS V14.01,2013-04-03 02:06:00,
2013-04-03 04:07:00,64.6,62.2,30.09,WSW,248,0.0,0.0,92,0.00,,---,0.00,VWS V14.01,2013-04-03 02:07:00,
2013-04-03 04:11:00,64.6,62.2,30.09,WSW,248,0.0,0.0,92,0.00,,---,0.00,VWS V14.01,2013-04-03 02:11:00,
2013-04-03 04:12:00,64.6,62.2,30.09,WSW,248,0.0,0.0,92,0.00,,---,0.00,VWS V14.01,2013-04-03 02:12:00,
2013-04-03 04:14:00,64.6,62.2,30.09,West,270,0.0,0.0,92,0.00,,---,0.00,VWS V14.01,2013-04-03 02:14:00,
2013-04-03 04:18:00,64.4,62.0,30.09,WSW,248,0.0,0.0,92,0.00,,---,0.00,VWS V14.01,2013-04-03 02:18:00,
2013-04-03 04:19:00,64.4,62.0,30.09,WSW,248,0.0,0.0,92,0.00,,---,0.00,VWS V14.01,2013-04-03 02:19:00,
2013-04-03 04:21:00,64.4,62.0,30.09,WSW,248,0.0,0.0,92,0.00,,---,0.00,VWS V14.01,2013-04-03 02:21:00,
2013-04-03 04:23:00,64.2,61.8,30.09,West,270,0.0,0.0,92,0.00,,---,0.00,VWS V14.01,2013-04-03 02:23:00,
2013-04-03 04:25:00,64.4,62.0,30.09,WSW,248,0.0,0.0,92,0.00,,---,0.00,VWS V14.01,2013-04-03 02:25:00,
2013-04-03 04:28:00,64.4,62.0,30.09,SW,225,0.0,0.0,92,0.00,,---,0.00,VWS V14.01,2013-04-03 02:28:00,
2013-04-03 04:29:00,64.6,62.2,30.09,WSW,248,0.0,0.0,92,0.00,,---,0.00,VWS V14.01,2013-04-03 02:29:00,
2013-04-03 04:34:00,65.1,63.0,30.09,WSW,248,0.0,0.0,93,0.00,,---,0.00,VWS V14.01,2013-04-03 02:34:00,
2013-04-03 04:35:00,65.1,63.0,30.09,WSW,248,0.0,0.0,93,0.00,,---,0.00,VWS V14.01,2013-04-03 02:35:00,
2013-04-03 04:37:00,65.1,63.0,30.09,WSW,248,0.0,0.0,93,0.00,,---,0.00,VWS V14.01,2013-04-03 02:37:00,
2013-04-03 04:39:00,65.1,63.0,30.09,WSW,248,0.0,0.0,93,0.00,,---,0.00,VWS V14.01,2013-04-03 02:39:00,
2013-04-03 04:42:00,65.1,63.0,30.09,WSW,248,0.0,0.0,93,0.00,,---,0.00,VWS V14.01,2013-04-03 02:42:00,
2013-04-03 04:43:00,65.1,63.0,30.09,WSW,248,0.0,0.0,93,0.00,,---,0.00,VWS V14.01,2013-04-03 02:43:00,
2013-04-03 04:48:00,64.9,62.6,30.09,WSW,248,0.0,0.0,92,0.00,,---,0.00,VWS V14.01,2013-04-03 02:48:00,
2013-04-03 04:52:00,64.8,62.4,30.09,WSW,248,0.0,0.0,92,0.00,,---,0.00,VWS V14.01,2013-04-03 02:52:00,
2013-04-03 04:57:00,64.8,62.4,30.09,WSW,248,0.0,0.0,92,0.00,,---,0.00,VWS V14.01,2013-04-03 02:57:00,
2013-04-03 04:59:00,64.8,62.4,30.09,SW,225,0.0,0.0,92,0.00,,---,0.00,VWS V14.01,2013-04-03 02:59:00,
2013-04-03 05:02:00,64.8,62.4,30.09,WSW,248,0.0,0.0,92,0.00,,---,0.00,VWS V14.01,2013-04-03 03:02:00,
2013-04-03 05:06:00,64.8,62.4,30.09,WSW,248,0.0,0.0,92,0.00,,---,0.00,VWS V14.01,2013-04-03 03:06:00,
2013-04-03 05:07:00,64.8,62.4,30.09,WSW,248,0.0,0.0,92,0.00,,---,0.00,VWS V14.01,2013-04-03 03:07:00,
2013-04-03 05:08:00,64.8,62.4,30.09,WSW,248,0.0,0.0,92,0.00,,---,0.00,VWS V14.01,2013-04-03 03:08:00,
2013-04-03 05:12:00,64.8,62.4,30.09,West,270,0.0,0.0,92,0.00,,---,0.00,VWS V14.01,2013-04-03 03:12:00,
2013-04-03 05:14:00,64.8,62.4,30.09,WSW,248,0.0,0.0,92,0.00,,---,0.00,VWS V14.01,2013-04-03 03:14:00,
2013-04-03 05:20:00,64.8,62.4,30.09,WSW,248,0.0,0.0,92,0.00,,---,0.00,VWS V14.01,2013-04-03 03:20:00,
2013-04-03 05:21:00,64.8,62.4,30.09,WSW,248,0.0,0.0,92,0.00,,---,0.00,VWS V14.01,2013-04-03 03:21:00,
2013-04-03 05:22:00,63.9,61.2,30.09,WSW,248,0.0,0.0,91,0.00,,---,0.00,VWS V14.01,2013-04-03 03:22:00,
2013-04-03 05:26:00,63.9,61.2,30.09,WSW,248,0.0,0.0,91,0.00,,---,0.00,VWS V14.01,2013-04-03 03:26:00,
2013-04-03 05:29:00,63.7,61.0,30.09,WSW,248,0.0,0.0,91,0.00,,---,0.00,VWS V14.01,2013-04-03 03:29:00,
2013-04-03 05:32:00,63.7,61.0,30.09,WSW,248,0.0,0.0,91,0.00,,---,0.00,VWS V14.01,2013-04-03 03:32:00,
2013-04-03 05:35:00,63.5,60.8,30.09,WSW,248,0.0,0.0,91,0.00,,---,0.00,VWS V14.01,2013-04-03 03:35:00,
2013-04-03 05:40:00,63.5,60.8,30.09,WSW,248,0.0,0.0,91,0.00,,---,0.00,VWS V14.01,2013-04-03 03:40:00,
2013-04-03 05:41:00,63.5,60.8,30.09,WSW,248,0.0,0.0,91,0.00,,---,0.00,VWS V14.01,2013-04-03 03:41:00,
2013-04-03 05:43:00,63.5,60.8,30.09,WSW,248,0.0,0.0,91,0.00,,---,0.00,VWS V14.01,2013-04-03 03:43:00,
2013-04-03 05:47:00,63.3,60.7,30.09,WSW,248,0.0,0.0,91,0.00,,---,0.00,VWS V14.01,2013-04-03 03:47:00,
2013-04-03 05:48:00,63.3,60.7,30.09,WSW,248,0.0,0.0,91,0.00,,---,0.00,VWS V14.01,2013-04-03 03:48:00,
2013-04-03 05:50:00,63.1,60.5,30.09,WSW,248,0.0,0.0,91,0.00,,---,0.00,VWS V14.01,2013-04-03 03:50:00,
2013-04-03 05:55:00,63.0,60.3,30.09,WSW,248,0.0,0.0,91,0.00,,---,0.00,VWS V14.01,2013-04-03 03:55:00,
2013-04-03 06:00:00,62.8,59.8,30.09,WSW,248,0.0,0.0,90,0.00,,---,0.00,VWS V14.01,2013-04-03 04:00:00,
2013-04-03 06:01:00,62.6,59.6,30.09,WSW,248,0.0,0.0,90,0.00,,---,0.00,VWS V14.01,2013-04-03 04:01:00,
2013-04-03 06:05:00,62.6,59.6,30.09,WSW,248,0.0,0.0,90,0.00,,---,0.00,VWS V14.01,2013-04-03 04:05:00,
2013-04-03 06:07:00,62.4,59.8,30.09,WSW,248,0.0,0.0,91,0.00,,---,0.00,VWS V14.01,2013-04-03 04:07:00,
2013-04-03 06:09:00,62.4,59.8,30.09,WSW,248,0.0,0.0,91,0.00,,---,0.00,VWS V14.01,2013-04-03 04:09:00,
2013-04-03 06:10:00,62.4,59.8,30.12,WSW,248,0.0,0.0,91,0.00,,---,0.00,VWS V14.01,2013-04-03 04:10:00,
2013-04-03 06:12:00,62.4,59.8,30.12,WNW,292,0.0,0.0,91,0.00,,---,0.00,VWS V14.01,2013-04-03 04:12:00,
2013-04-03 06:16:00,62.4,59.8,30.12,WSW,248,0.0,0.0,91,0.00,,---,0.00,VWS V14.01,2013-04-03 04:16:00,
2013-04-03 06:17:00,62.4,59.8,30.12,SW,225,0.0,0.0,91,0.00,,---,0.00,VWS V14.01,2013-04-03 04:17:00,
2013-04-03 06:18:00,62.4,59.8,30.12,WSW,248,0.0,0.0,91,0.00,,---,0.00,VWS V14.01,2013-04-03 04:18:00,
2013-04-03 06:22:00,62.4,59.8,30.12,WSW,248,0.0,0.0,91,0.00,,---,0.00,VWS V14.01,2013-04-03 04:22:00,
2013-04-03 06:23:00,62.2,59.6,30.12,WSW,248,0.0,0.0,91,0.00,,---,0.00,VWS V14.01,2013-04-03 04:23:00,
2013-04-03 06:24:00,62.2,59.6,30.12,WSW,248,0.0,0.0,91,0.00,,---,0.00,VWS V14.01,2013-04-03 04:24:00,
2013-04-03 06:29:00,62.1,59.4,30.09,WSW,248,0.0,0.0,91,0.00,,---,0.00,VWS V14.01,2013-04-03 04:29:00,
2013-04-03 06:31:00,62.1,59.4,30.09,WSW,248,0.0,0.0,91,0.00,,---,0.00,VWS V14.01,2013-04-03 04:31:00,
2013-04-03 06:33:00,62.2,59.6,30.09,WSW,248,0.0,0.0,91,0.00,,---,0.00,VWS V14.01,2013-04-03 04:33:00,
2013-04-03 06:35:00,62.2,59.6,30.09,WSW,248,0.0,0.0,91,0.00,,---,0.00,VWS V14.01,2013-04-03 04:35:00,
2013-04-03 06:40:00,61.9,58.9,30.09,WSW,248,0.0,0.0,90,0.00,,---,0.00,VWS V14.01,2013-04-03 04:40:00,
2013-04-03 06:41:00,61.9,59.2,30.09,WSW,248,0.0,0.0,91,0.00,,---,0.00,VWS V14.01,2013-04-03 04:41:00,
2013-04-03 06:43:00,62.1,59.4,30.09,WSW,248,0.0,0.0,91,0.00,,---,0.00,VWS V14.01,2013-04-03 04:43:00,
2013-04-03 06:47:00,62.1,59.4,30.09,WSW,248,0.0,0.0,91,0.00,,---,0.00,VWS V14.01,2013-04-03 04:47:00,
2013-04-03 06:51:00,62.2,59.6,30.09,WNW,292,0.0,0.0,91,0.00,,---,0.00,VWS V14.01,2013-04-03 04:51:00,
2013-04-03 06:52:00,62.2,59.6,30.09,WSW,248,0.0,0.0,91,0.00,,---,0.00,VWS V14.01,2013-04-03 04:52:00,
2013-04-03 06:53:00,62.2,59.6,30.09,West,270,0.0,0.0,91,0.00,,---,0.00,VWS V14.01,2013-04-03 04:53:00,
2013-04-03 06:58:00,62.6,59.6,30.09,WSW,248,0.0,0.0,90,0.00,,---,0.00,VWS V14.01,2013-04-03 04:58:00,
2013-04-03 06:59:00,62.6,59.6,30.09,WNW,292,0.0,0.0,90,0.00,,---,0.00,VWS V14.01,2013-04-03 04:59:00,
2013-04-03 07:03:00,63.0,60.0,30.09,West,270,0.0,0.0,90,0.00,,---,0.00,VWS V14.01,2013-04-03 05:03:00,
2013-04-03 07:06:00,63.0,60.0,30.09,WSW,248,0.0,0.0,90,0.00,,---,0.00,VWS V14.01,2013-04-03 05:06:00,
2013-04-03 07:09:00,63.1,59.8,30.09,WSW,248,0.0,0.0,89,0.00,,---,0.00,VWS V14.01,2013-04-03 05:09:00,
2013-04-03 07:10:00,63.1,59.5,30.09,West,270,0.0,0.0,88,0.00,,---,0.00,VWS V14.01,2013-04-03 05:10:00,
2013-04-03 07:13:00,63.1,59.2,30.12,WNW,292,0.0,0.0,87,0.00,,---,0.00,VWS V14.01,2013-04-03 05:13:00,
2013-04-03 07:14:00,63.1,58.9,30.12,WSW,248,0.0,0.0,86,0.00,,---,0.00,VWS V14.01,2013-04-03 05:14:00,
2013-04-03 07:18:00,63.3,59.1,30.12,WSW,248,0.0,0.0,86,0.00,,---,0.00,VWS V14.01,2013-04-03 05:18:00,
2013-04-03 07:19:00,63.3,58.7,30.12,WSW,248,0.0,0.0,85,0.00,,---,0.00,VWS V14.01,2013-04-03 05:19:00,
2013-04-03 07:20:00,63.1,58.2,30.12,WNW,292,0.0,0.0,84,0.00,,---,0.00,VWS V14.01,2013-04-03 05:20:00,
2013-04-03 07:25:00,63.1,57.2,30.12,West,270,0.0,0.0,81,0.00,,---,0.00,VWS V14.01,2013-04-03 05:25:00,
2013-04-03 07:27:00,63.0,56.3,30.12,WSW,248,0.0,0.0,79,0.00,,---,0.00,VWS V14.01,2013-04-03 05:27:00,
2013-04-03 07:28:00,63.0,56.0,30.12,WSW,248,0.0,0.0,78,0.00,,---,0.00,VWS V14.01,2013-04-03 05:28:00,
2013-04-03 07:29:00,63.0,55.7,30.12,WSW,248,0.0,0.0,77,0.00,,---,0.00,VWS V14.01,2013-04-03 05:29:00,
2013-04-03 07:30:00,63.0,55.3,30.12,WSW,248,0.0,0.0,76,0.00,,---,0.00,VWS V14.01,2013-04-03 05:30:00,
2013-04-03 07:35:00,63.1,55.1,30.12,WSW,248,0.0,0.0,75,0.00,,---,0.00,VWS V14.01,2013-04-03 05:35:00,
2013-04-03 07:36:00,63.5,55.1,30.12,WSW,248,0.0,0.0,74,0.00,,---,0.00,VWS V14.01,2013-04-03 05:36:00,
2013-04-03 07:40:00,63.9,53.9,30.12,WSW,248,0.0,0.0,70,0.00,,---,0.00,VWS V14.01,2013-04-03 05:40:00,
2013-04-03 07:43:00,63.3,51.0,30.12,West,270,0.0,0.0,64,0.00,,---,0.00,VWS V14.01,2013-04-03 05:43:00,
2013-04-03 07:46:00,63.9,51.5,30.12,WNW,292,0.0,0.0,64,0.00,,---,0.00,VWS V14.01,2013-04-03 05:46:00,
2013-04-03 07:47:00,63.9,51.5,30.12,WSW,248,0.0,0.0,64,0.00,,---,0.00,VWS V14.01,2013-04-03 05:47:00,
2013-04-03 07:48:00,64.2,51.8,30.12,SSW,202,0.0,0.0,64,0.00,,---,0.00,VWS V14.01,2013-04-03 05:48:00,
2013-04-03 07:50:00,64.2,49.6,30.12,WSW,248,0.0,0.0,59,0.00,,---,0.00,VWS V14.01,2013-04-03 05:50:00,
2013-04-03 07:53:00,64.6,49.0,30.12,WSW,248,0.0,0.0,57,0.00,,---,0.00,VWS V14.01,2013-04-03 05:53:00,
2013-04-03 07:55:00,64.8,48.2,30.12,WSW,248,0.0,0.0,55,0.00,,---,0.00,VWS V14.01,2013-04-03 05:55:00,
2013-04-03 07:57:00,64.9,46.9,30.12,West,270,0.0,0.0,52,0.00,,---,0.00,VWS V14.01,2013-04-03 05:57:00,
2013-04-03 07:58:00,65.1,47.1,30.12,WSW,248,0.0,0.0,52,0.00,,---,0.00,VWS V14.01,2013-04-03 05:58:00,
2013-04-03 07:59:00,65.3,47.8,30.12,WSW,248,0.0,0.0,53,0.00,,---,0.00,VWS V14.01,2013-04-03 05:59:00,
2013-04-03 08:03:00,65.1,45.5,30.12,WSW,248,0.0,0.0,49,0.00,,---,0.00,VWS V14.01,2013-04-03 06:03:00,
2013-04-03 08:06:00,64.6,45.0,30.12,WSW,248,0.0,0.0,49,0.00,,---,0.00,VWS V14.01,2013-04-03 06:06:00,
2013-04-03 08:08:00,64.8,45.7,30.12,WSW,248,0.0,0.0,50,0.00,,---,0.00,VWS V14.01,2013-04-03 06:08:00,
2013-04-03 08:11:00,65.1,46.0,30.12,WSW,248,0.0,0.0,50,0.00,,---,0.00,VWS V14.01,2013-04-03 06:11:00,
2013-04-03 08:13:00,65.5,46.4,30.12,WSW,248,0.0,0.0,50,0.00,,---,0.00,VWS V14.01,2013-04-03 06:13:00,
2013-04-03 08:17:00,65.7,46.0,30.12,WSW,248,0.0,0.0,49,0.00,,---,0.00,VWS V14.01,2013-04-03 06:17:00,
2013-04-03 08:22:00,66.6,45.7,30.12,WSW,248,0.0,0.0,47,0.00,,---,0.00,VWS V14.01,2013-04-03 06:22:00,
2013-04-03 08:23:00,66.6,45.7,30.12,WSW,248,0.0,0.0,47,0.00,,---,0.00,VWS V14.01,2013-04-03 06:23:00,
2013-04-03 08:24:00,66.7,45.9,30.12,WSW,248,0.0,0.0,47,0.00,,---,0.00,VWS V14.01,2013-04-03 06:24:00,
2013-04-03 08:28:00,67.3,45.8,30.12,SW,225,0.0,0.0,46,0.00,,---,0.00,VWS V14.01,2013-04-03 06:28:00,
2013-04-03 08:29:00,67.5,46.0,30.12,WSW,248,0.0,0.0,46,0.00,,---,0.00,VWS V14.01,2013-04-03 06:29:00,
2013-04-03 08:32:00,68.0,45.3,30.12,WSW,248,0.0,0.0,44,0.00,,---,0.00,VWS V14.01,2013-04-03 06:32:00,
2013-04-03 08:33:00,68.0,44.7,30.12,SSW,202,0.0,0.0,43,0.00,,---,0.00,VWS V14.01,2013-04-03 06:33:00,
2013-04-03 08:35:00,68.2,43.0,30.12,SSW,202,0.0,0.0,40,0.00,,---,0.00,VWS V14.01,2013-04-03 06:35:00,
2013-04-03 08:38:00,68.5,42.0,30.12,SSW,202,0.0,0.0,38,0.00,,---,0.00,VWS V14.01,2013-04-03 06:38:00,
2013-04-03 08:40:00,68.5,42.0,30.12,SW,225,0.0,0.0,38,0.00,,---,0.00,VWS V14.01,2013-04-03 06:40:00,
2013-04-03 08:42:00,68.5,40.5,30.12,WSW,248,0.0,0.0,36,0.00,,---,0.00,VWS V14.01,2013-04-03 06:42:00,
2013-04-03 08:43:00,68.7,40.7,30.12,SW,225,0.0,0.0,36,0.00,,---,0.00,VWS V14.01,2013-04-03 06:43:00,
2013-04-03 08:47:00,69.1,41.0,30.12,SSW,202,0.0,0.0,36,0.00,,---,0.00,VWS V14.01,2013-04-03 06:47:00,
2013-04-03 08:50:00,69.3,40.5,30.12,SSE,158,0.0,0.0,35,0.00,,---,0.00,VWS V14.01,2013-04-03 06:50:00,
2013-04-03 08:52:00,69.4,40.6,30.12,South,180,0.0,0.0,35,0.00,,---,0.00,VWS V14.01,2013-04-03 06:52:00,
2013-04-03 08:54:00,69.6,40.8,30.12,WSW,248,0.0,0.0,35,0.00,,---,0.00,VWS V14.01,2013-04-03 06:54:00,
2013-04-03 08:57:00,70.0,40.3,30.12,SSW,202,0.0,0.0,34,0.00,,---,0.00,VWS V14.01,2013-04-03 06:57:00,
2013-04-03 08:59:00,70.3,41.4,30.12,South,180,0.0,0.0,35,0.00,,---,0.00,VWS V14.01,2013-04-03 06:59:00,
2013-04-03 09:01:00,70.5,41.6,30.12,SSW,202,0.0,0.0,35,0.00,,---,0.00,VWS V14.01,2013-04-03 07:01:00,
2013-04-03 09:02:00,70.7,41.0,30.12,SSW,202,0.0,0.0,34,0.00,,---,0.00,VWS V14.01,2013-04-03 07:02:00,
2013-04-03 09:06:00,70.9,41.1,30.12,SSW,202,0.0,0.0,34,0.00,,---,0.00,VWS V14.01,2013-04-03 07:06:00,
2013-04-03 09:10:00,70.9,41.1,30.12,WSW,248,0.0,0.0,34,0.00,,---,0.00,VWS V14.01,2013-04-03 07:10:00,
2013-04-03 09:11:00,70.9,41.1,30.12,SW,225,0.0,0.0,34,0.00,,---,0.00,VWS V14.01,2013-04-03 07:11:00,
2013-04-03 09:15:00,72.5,42.6,30.15,SW,225,0.0,0.0,34,0.00,,---,0.00,VWS V14.01,2013-04-03 07:15:00,
2013-04-03 09:17:00,72.7,42.0,30.15,SSW,202,0.0,0.0,33,0.00,,---,0.00,VWS V14.01,2013-04-03 07:17:00,
2013-04-03 09:19:00,72.1,41.5,30.15,SSE,158,0.0,0.0,33,0.00,,---,0.00,VWS V14.01,2013-04-03 07:19:00,
2013-04-03 09:20:00,71.6,41.0,30.15,ESE,112,0.0,0.0,33,0.00,,---,0.00,VWS V14.01,2013-04-03 07:20:00,
2013-04-03 09:24:00,69.4,39.9,30.15,East,90,0.0,0.0,34,0.00,,---,0.00,VWS V14.01,2013-04-03 07:24:00,
2013-04-03 09:27:00,68.2,38.8,30.15,SSW,202,0.0,0.0,34,0.00,,---,0.00,VWS V14.01,2013-04-03 07:27:00,
2013-04-03 09:28:00,68.0,38.6,30.15,SSW,202,0.0,0.0,34,0.00,,---,0.00,VWS V14.01,2013-04-03 07:28:00,
2013-04-03 09:32:00,67.1,38.6,30.15,SSW,202,0.0,0.0,35,0.00,,---,0.00,VWS V14.01,2013-04-03 07:32:00,
2013-04-03 09:33:00,66.9,38.4,30.15,SSW,202,0.0,0.0,35,0.00,,---,0.00,VWS V14.01,2013-04-03 07:33:00,
2013-04-03 09:35:00,66.6,38.8,30.15,WSW,248,0.0,0.0,36,0.00,,---,0.00,VWS V14.01,2013-04-03 07:35:00,
2013-04-03 09:37:00,66.6,39.5,30.15,SSW,202,0.0,0.0,37,0.00,,---,0.00,VWS V14.01,2013-04-03 07:37:00,
2013-04-03 09:39:00,66.4,39.3,30.15,SSW,202,0.0,0.0,37,0.00,,---,0.00,VWS V14.01,2013-04-03 07:39:00,
2013-04-03 09:42:00,66.2,39.2,30.15,SSW,202,0.0,0.0,37,0.00,,---,0.00,VWS V14.01,2013-04-03 07:42:00,
2013-04-03 09:44:00,66.0,39.7,30.15,SSW,202,0.0,0.0,38,0.00,,---,0.00,VWS V14.01,2013-04-03 07:44:00,
2013-04-03 09:45:00,66.2,39.9,30.15,SSE,158,0.0,0.0,38,0.00,,---,0.00,VWS V14.01,2013-04-03 07:45:00,
2013-04-03 09:49:00,66.2,40.5,30.15,South,180,0.0,0.0,39,0.00,,---,0.00,VWS V14.01,2013-04-03 07:49:00,
2013-04-03 09:50:00,66.4,40.7,30.15,SSW,202,0.0,0.0,39,0.00,,---,0.00,VWS V14.01,2013-04-03 07:50:00,
2013-04-03 09:51:00,66.4,40.7,30.15,SSW,202,0.0,0.0,39,0.00,,---,0.00,VWS V14.01,2013-04-03 07:51:00,
2013-04-03 09:55:00,66.6,40.9,30.15,SSW,202,0.0,0.0,39,0.00,,---,0.00,VWS V14.01,2013-04-03 07:55:00,
2013-04-03 09:57:00,66.6,40.9,30.15,South,180,0.0,0.0,39,0.00,,---,0.00,VWS V14.01,2013-04-03 07:57:00,
2013-04-03 10:00:00,66.4,40.0,30.15,ESE,112,0.0,0.0,38,0.00,,---,0.00,VWS V14.01,2013-04-03 08:00:00,
2013-04-03 10:01:00,66.0,39.0,30.15,ESE,112,0.0,0.0,37,0.00,,---,0.00,VWS V14.01,2013-04-03 08:01:00,
2013-04-03 10:02:00,66.0,39.0,30.15,ESE,112,0.0,0.0,37,0.00,,---,0.00,VWS V14.01,2013-04-03 08:02:00,
2013-04-03 10:03:00,66.0,39.7,30.15,ESE,112,0.0,0.0,38,0.00,,---,0.00,VWS V14.01,2013-04-03 08:03:00,
2013-04-03 10:08:00,69.1,42.4,30.15,SE,135,0.0,0.0,38,0.00,,---,0.00,VWS V14.01,2013-04-03 08:08:00,
2013-04-03 10:09:00,69.6,42.9,30.15,ESE,112,0.0,0.0,38,0.00,,---,0.00,VWS V14.01,2013-04-03 08:09:00,
2013-04-03 10:11:00,69.6,42.2,30.15,SE,135,0.0,0.0,37,0.00,,---,0.00,VWS V14.01,2013-04-03 08:11:00,
2013-04-03 10:14:00,70.7,41.0,30.15,SSW,202,0.0,0.0,34,0.00,,---,0.00,VWS V14.01,2013-04-03 08:14:00,
2013-04-03 10:17:00,71.1,40.5,30.15,SSE,158,0.0,0.0,33,0.00,,---,0.00,VWS V14.01,2013-04-03 08:17:00,
2013-04-03 10:18:00,71.2,40.7,30.15,SSW,202,0.0,0.0,33,0.00,,---,0.00,VWS V14.01,2013-04-03 08:18:00,
2013-04-03 10:19:00,71.1,40.5,30.15,SSW,202,0.0,0.0,33,0.00,,---,0.00,VWS V14.01,2013-04-03 08:19:00,
2013-04-03 10:23:00,72.0,40.5,30.15,SSE,158,0.0,0.0,32,0.00,,---,0.00,VWS V14.01,2013-04-03 08:23:00,
2013-04-03 10:27:00,72.1,40.7,30.15,ENE,68,0.0,0.0,32,0.00,,---,0.00,VWS V14.01,2013-04-03 08:27:00,
2013-04-03 10:28:00,72.0,39.7,30.15,ESE,112,0.0,0.0,31,0.00,,---,0.00,VWS V14.01,2013-04-03 08:28:00,
2013-04-03 10:30:00,72.0,39.7,30.15,ESE,112,0.0,0.0,31,0.00,,---,0.00,VWS V14.01,2013-04-03 08:30:00,
2013-04-03 10:36:00,72.3,39.2,30.15,SE,135,0.0,0.0,30,0.00,,---,0.00,VWS V14.01,2013-04-03 08:36:00,
2013-04-03 10:37:00,72.3,39.2,30.15,ESE,112,0.0,0.0,30,0.00,,---,0.00,VWS V14.01,2013-04-03 08:37:00,
2013-04-03 10:39:00,72.0,37.1,30.15,ESE,112,0.0,0.0,28,0.00,,---,0.00,VWS V14.01,2013-04-03 08:39:00,
2013-04-03 10:42:00,72.3,37.4,30.15,SSE,158,0.0,0.0,28,0.00,,---,0.00,VWS V14.01,2013-04-03 08:42:00,
2013-04-03 10:43:00,72.1,37.3,30.15,ESE,112,0.0,0.0,28,0.00,,---,0.00,VWS V14.01,2013-04-03 08:43:00,
2013-04-03 10:44:00,71.8,37.0,30.15,SSE,158,0.0,0.0,28,0.00,,---,0.00,VWS V14.01,2013-04-03 08:44:00,
2013-04-03 10:48:00,72.1,38.2,30.15,ESE,112,0.0,0.0,29,0.00,,---,0.00,VWS V14.01,2013-04-03 08:48:00,
2013-04-03 10:49:00,72.1,38.2,30.15,East,90,0.0,0.0,29,0.00,,---,0.00,VWS V14.01,2013-04-03 08:49:00,
2013-04-03 10:50:00,72.1,38.2,30.15,South,180,0.0,0.0,29,0.00,,---,0.00,VWS V14.01,2013-04-03 08:50:00,
2013-04-03 10:51:00,72.1,38.2,30.15,ESE,112,0.0,0.0,29,0.00,,---,0.00,VWS V14.01,2013-04-03 08:51:00,
2013-04-03 10:55:00,72.3,36.5,30.15,ESE,112,0.0,0.0,27,0.00,,---,0.00,VWS V14.01,2013-04-03 08:55:00,
2013-04-03 10:57:00,72.1,36.3,30.15,SE,135,0.0,0.0,27,0.00,,---,0.00,VWS V14.01,2013-04-03 08:57:00,
2013-04-03 10:58:00,72.1,36.3,30.15,SE,135,0.0,0.0,27,0.00,,---,0.00,VWS V14.01,2013-04-03 08:58:00,
2013-04-03 11:00:00,72.1,36.3,30.15,ESE,112,0.0,0.0,27,0.00,,---,0.00,VWS V14.01,2013-04-03 09:00:00,
2013-04-03 11:01:00,72.1,36.3,30.15,SSE,158,0.0,0.0,27,0.00,,---,0.00,VWS V14.01,2013-04-03 09:01:00,
2013-04-03 11:04:00,72.3,35.5,30.15,ESE,112,0.0,0.0,26,0.00,,---,0.00,VWS V14.01,2013-04-03 09:04:00,
2013-04-03 11:05:00,72.3,35.5,30.15,SSE,158,0.0,0.0,26,0.00,,---,0.00,VWS V14.01,2013-04-03 09:05:00,
2013-04-03 11:07:00,72.1,35.4,30.15,SE,135,0.0,0.0,26,0.00,,---,0.00,VWS V14.01,2013-04-03 09:07:00,
2013-04-03 11:10:00,72.3,36.5,30.15,WSW,248,0.0,0.0,27,0.00,,---,0.00,VWS V14.01,2013-04-03 09:10:00,
2013-04-03 11:13:00,72.3,35.5,30.15,SW,225,0.0,0.0,26,0.00,,---,0.00,VWS V14.01,2013-04-03 09:13:00,
2013-04-03 11:16:00,72.5,35.7,30.15,SE,135,0.0,0.0,26,0.00,,---,0.00,VWS V14.01,2013-04-03 09:16:00,
2013-04-03 11:20:00,72.5,34.7,30.15,NE,45,0.0,0.0,25,0.00,,---,0.00,VWS V14.01,2013-04-03 09:20:00,
2013-04-03 11:22:00,72.3,34.6,30.15,ENE,68,0.0,0.0,25,0.00,,---,0.00,VWS V14.01,2013-04-03 09:22:00,
2013-04-03 11:25:00,72.0,34.2,30.15,SE,135,0.0,0.0,25,0.00,,---,0.00,VWS V14.01,2013-04-03 09:25:00,
2013-04-03 11:27:00,72.1,34.4,30.15,NNW,338,0.0,0.0,25,0.00,,---,0.00,VWS V14.01,2013-04-03 09:27:00,
2013-04-03 11:29:00,72.1,34.4,30.15,East,90,0.0,0.0,25,0.00,,---,0.00,VWS V14.01,2013-04-03 09:29:00,
2013-04-03 11:30:00,72.5,35.7,30.15,WSW,248,0.0,0.0,26,0.00,,---,0.00,VWS V14.01,2013-04-03 09:30:00,
2013-04-03 11:33:00,72.1,34.4,30.15,SSW,202,0.0,0.0,25,0.00,,---,0.00,VWS V14.01,2013-04-03 09:33:00,
2013-04-03 11:36:00,72.1,34.4,30.15,SW,225,0.0,0.0,25,0.00,,---,0.00,VWS V14.01,2013-04-03 09:36:00,
2013-04-03 11:38:00,71.8,34.1,30.15,SW,225,0.0,0.0,25,0.00,,---,0.00,VWS V14.01,2013-04-03 09:38:00,
2013-04-03 11:40:00,71.8,34.1,30.15,SW,225,0.0,0.0,25,0.00,,---,0.00,VWS V14.01,2013-04-03 09:40:00,
2013-04-03 11:42:00,72.0,35.2,30.15,SW,225,0.0,0.0,26,0.00,,---,0.00,VWS V14.01,2013-04-03 09:42:00,
2013-04-03 11:43:00,72.1,34.4,30.15,SW,225,0.0,0.0,25,0.00,,---,0.00,VWS V14.01,2013-04-03 09:43:00,
2013-04-03 11:46:00,72.0,35.2,30.15,SW,225,0.0,0.0,26,0.00,,---,0.00,VWS V14.01,2013-04-03 09:46:00,
2013-04-03 11:47:00,72.1,35.4,30.15,WSW,248,0.0,0.0,26,0.00,,---,0.00,VWS V14.01,2013-04-03 09:47:00,
2013-04-03 11:50:00,72.0,35.2,30.15,WSW,248,0.0,0.0,26,0.00,,---,0.00,VWS V14.01,2013-04-03 09:50:00,
2013-04-03 11:52:00,72.1,35.4,30.15,WSW,248,0.0,0.0,26,0.00,,---,0.00,VWS V14.01,2013-04-03 09:52:00,
2013-04-03 11:56:00,71.6,34.9,30.15,WSW,248,0.0,0.0,26,0.00,,---,0.00,VWS V14.01,2013-04-03 09:56:00,
2013-04-03 11:57:00,71.4,35.7,30.15,WSW,248,0.0,0.0,27,0.00,,---,0.00,VWS V14.01,2013-04-03 09:57:00,
2013-04-03 12:01:00,71.6,34.9,30.15,WSW,248,0.0,0.0,26,0.00,,---,0.00,VWS V14.01,2013-04-03 10:01:00,
2013-04-03 12:02:00,71.8,36.0,30.15,WSW,248,0.0,0.0,27,0.00,,---,0.00,VWS V14.01,2013-04-03 10:02:00,
2013-04-03 12:07:00,71.4,35.7,30.15,WSW,248,0.0,0.0,27,0.00,,---,0.00,VWS V14.01,2013-04-03 10:07:00,
2013-04-03 12:08:00,71.2,36.5,30.15,SSE,158,0.0,0.0,28,0.00,,---,0.00,VWS V14.01,2013-04-03 10:08:00,
2013-04-03 12:11:00,71.2,35.6,30.15,SE,135,0.0,0.0,27,0.00,,---,0.00,VWS V14.01,2013-04-03 10:11:00,
2013-04-03 12:13:00,71.1,36.3,30.15,ESE,112,0.0,0.0,28,0.00,,---,0.00,VWS V14.01,2013-04-03 10:13:00,
2013-04-03 12:14:00,71.1,36.3,30.15,ESE,112,0.0,0.0,28,0.00,,---,0.00,VWS V14.01,2013-04-03 10:14:00,
2013-04-03 12:16:00,70.9,36.2,30.15,SSE,158,0.0,0.0,28,0.00,,---,0.00,VWS V14.01,2013-04-03 10:16:00,
2013-04-03 12:18:00,70.7,36.9,30.15,East,90,0.0,0.0,29,0.00,,---,0.00,VWS V14.01,2013-04-03 10:18:00,
2013-04-03 12:19:00,71.2,37.4,30.15,SE,135,0.0,0.0,29,0.00,,---,0.00,VWS V14.01,2013-04-03 10:19:00,
2013-04-03 12:24:00,71.6,37.7,30.15,SW,225,0.0,0.0,29,0.00,,---,0.00,VWS V14.01,2013-04-03 10:24:00,
2013-04-03 12:25:00,71.2,37.4,30.15,SSW,202,0.0,0.0,29,0.00,,---,0.00,VWS V14.01,2013-04-03 10:25:00,
2013-04-03 12:26:00,71.2,37.4,30.15,SW,225,0.0,0.0,29,0.00,,---,0.00,VWS V14.01,2013-04-03 10:26:00,
2013-04-03 12:28:00,70.9,37.1,30.15,SSW,202,0.0,0.0,29,0.00,,---,0.00,VWS V14.01,2013-04-03 10:28:00,
2013-04-03 12:31:00,70.2,36.5,30.15,SSW,202,0.0,0.0,29,0.00,,---,0.00,VWS V14.01,2013-04-03 10:31:00,
2013-04-03 12:32:00,70.2,37.3,30.15,SSE,158,0.0,0.0,30,0.00,,---,0.00,VWS V14.01,2013-04-03 10:32:00,
2013-04-03 12:33:00,70.0,37.2,30.15,SSW,202,0.0,0.0,30,0.00,,---,0.00,VWS V14.01,2013-04-03 10:33:00,
2013-04-03 12:36:00,69.8,37.8,30.15,ENE,68,0.0,0.0,31,0.00,,---,0.00,VWS V14.01,2013-04-03 10:36:00,
2013-04-03 12:37:00,69.8,37.8,30.15,SSW,202,0.0,0.0,31,0.00,,---,0.00,VWS V14.01,2013-04-03 10:37:00,
2013-04-03 12:38:00,69.8,37.8,30.15,SSW,202,0.0,0.0,31,0.00,,---,0.00,VWS V14.01,2013-04-03 10:38:00,
2013-04-03 12:39:00,69.8,37.8,30.15,West,270,0.0,0.0,31,0.00,,---,0.00,VWS V14.01,2013-04-03 10:39:00,
2013-04-03 12:42:00,70.2,39.0,30.12,NE,45,0.0,0.0,32,0.00,,---,0.00,VWS V14.01,2013-04-03 10:42:00,
2013-04-03 12:43:00,70.5,39.3,30.12,SSW,202,0.0,0.0,32,0.00,,---,0.00,VWS V14.01,2013-04-03 10:43:00,
2013-04-03 12:45:00,70.2,39.0,30.12,SSW,202,0.0,0.0,32,0.00,,---,0.00,VWS V14.01,2013-04-03 10:45:00,
2013-04-03 12:46:00,70.0,38.0,30.12,SSW,202,0.0,0.0,31,0.00,,---,0.00,VWS V14.01,2013-04-03 10:46:00,
2013-04-03 12:48:00,70.0,38.0,30.12,SW,225,0.0,0.0,31,0.00,,---,0.00,VWS V14.01,2013-04-03 10:48:00,
2013-04-03 12:50:00,70.3,39.1,30.12,SSW,202,0.0,0.0,32,0.00,,---,0.00,VWS V14.01,2013-04-03 10:50:00,
2013-04-03 12:55:00,69.4,38.3,30.12,WSW,248,0.0,0.0,32,0.00,,---,0.00,VWS V14.01,2013-04-03 10:55:00,
2013-04-03 12:56:00,69.8,38.6,30.12,SSW,202,0.0,0.0,32,0.00,,---,0.00,VWS V14.01,2013-04-03 10:56:00,
2013-04-03 12:57:00,69.8,38.6,30.12,SSW,202,0.0,0.0,32,0.00,,---,0.00,VWS V14.01,2013-04-03 10:57:00,
2013-04-03 13:01:00,70.2,39.0,30.12,SW,225,0.0,0.0,32,0.00,,---,0.00,VWS V14.01,2013-04-03 11:01:00,
2013-04-03 13:04:00,70.0,38.8,30.12,ENE,68,0.0,0.0,32,0.00,,---,0.00,VWS V14.01,2013-04-03 11:04:00,
2013-04-03 13:05:00,70.7,39.4,30.12,ENE,68,0.0,0.0,32,0.00,,---,0.00,VWS V14.01,2013-04-03 11:05:00,
2013-04-03 13:07:00,70.3,38.3,30.12,SSW,202,0.0,0.0,31,0.00,,---,0.00,VWS V14.01,2013-04-03 11:07:00,
2013-04-03 13:09:00,70.5,38.5,30.12,SSE,158,0.0,0.0,31,0.00,,---,0.00,VWS V14.01,2013-04-03 11:09:00,
2013-04-03 13:10:00,70.7,39.4,30.12,ESE,112,0.0,0.0,32,0.00,,---,0.00,VWS V14.01,2013-04-03 11:10:00,
2013-04-03 13:13:00,70.7,38.6,30.12,SSW,202,0.0,0.0,31,0.00,,---,0.00,VWS V14.01,2013-04-03 11:13:00,
2013-04-03 13:14:00,70.7,38.6,30.12,WSW,248,0.0,0.0,31,0.00,,---,0.00,VWS V14.01,2013-04-03 11:14:00,
2013-04-03 13:15:00,70.5,39.3,30.12,East,90,0.0,0.0,32,0.00,,---,0.00,VWS V14.01,2013-04-03 11:15:00,
2013-04-03 13:17:00,70.3,39.1,30.12,SSW,202,0.0,0.0,32,0.00,,---,0.00,VWS V14.01,2013-04-03 11:17:00,
2013-04-03 13:18:00,70.7,39.4,30.12,North,0,0.0,0.0,32,0.00,,---,0.00,VWS V14.01,2013-04-03 11:18:00,
2013-04-03 13:20:00,70.5,39.3,30.12,ESE,112,0.0,0.0,32,0.00,,---,0.00,VWS V14.01,2013-04-03 11:20:00,
2013-04-03 13:23:00,70.5,39.3,30.12,SW,225,0.0,0.0,32,0.00,,---,0.00,VWS V14.01,2013-04-03 11:23:00,
2013-04-03 13:25:00,70.7,39.4,30.12,East,90,0.0,0.0,32,0.00,,---,0.00,VWS V14.01,2013-04-03 11:25:00,
2013-04-03 13:27:00,70.7,39.4,30.12,ENE,68,0.0,0.0,32,0.00,,---,0.00,VWS V14.01,2013-04-03 11:27:00,
2013-04-03 13:29:00,70.9,39.6,30.12,WSW,248,0.0,0.0,32,0.00,,---,0.00,VWS V14.01,2013-04-03 11:29:00,
2013-04-03 13:32:00,70.9,38.8,30.12,ESE,112,0.0,0.0,31,0.00,,---,0.00,VWS V14.01,2013-04-03 11:32:00,
2013-04-03 13:34:00,70.9,38.8,30.12,East,90,0.0,0.0,31,0.00,,---,0.00,VWS V14.01,2013-04-03 11:34:00,
2013-04-03 13:37:00,70.9,38.8,30.12,South,180,0.0,0.0,31,0.00,,---,0.00,VWS V14.01,2013-04-03 11:37:00,
2013-04-03 13:38:00,70.7,38.6,30.12,ENE,68,0.0,0.0,31,0.00,,---,0.00,VWS V14.01,2013-04-03 11:38:00,
2013-04-03 13:39:00,70.9,38.8,30.12,SSW,202,0.0,0.0,31,0.00,,---,0.00,VWS V14.01,2013-04-03 11:39:00,
2013-04-03 13:40:00,70.7,37.8,30.12,SSE,158,0.0,0.0,30,0.00,,---,0.00,VWS V14.01,2013-04-03 11:40:00,
2013-04-03 13:43:00,70.3,38.3,30.12,NNW,338,0.0,0.0,31,0.00,,---,0.00,VWS V14.01,2013-04-03 11:43:00,
2013-04-03 13:45:00,70.2,37.3,30.12,ESE,112,0.0,0.0,30,0.00,,---,0.00,VWS V14.01,2013-04-03 11:45:00,
2013-04-03 13:46:00,70.0,37.2,30.12,SE,135,0.0,0.0,30,0.00,,---,0.00,VWS V14.01,2013-04-03 11:46:00,
2013-04-03 13:48:00,70.3,39.1,30.12,SE,135,0.0,0.0,32,0.00,,---,0.00,VWS V14.01,2013-04-03 11:48:00,
2013-04-03 13:50:00,70.3,38.3,30.12,ENE,68,0.0,0.0,31,0.00,,---,0.00,VWS V14.01,2013-04-03 11:50:00,
2013-04-03 13:51:00,70.3,38.3,30.12,SSE,158,0.0,0.0,31,0.00,,---,0.00,VWS V14.01,2013-04-03 11:51:00,
2013-04-03 13:52:00,70.3,38.3,30.12,SSE,158,0.0,0.0,31,0.00,,---,0.00,VWS V14.01,2013-04-03 11:52:00,
2013-04-03 13:54:00,70.0,36.3,30.12,NE,45,0.0,0.0,29,0.00,,---,0.00,VWS V14.01,2013-04-03 11:54:00,
2013-04-03 13:56:00,70.2,37.3,30.12,SSW,202,0.0,0.0,30,0.00,,---,0.00,VWS V14.01,2013-04-03 11:56:00,
2013-04-03 14:01:00,70.2,37.3,30.12,SSE,158,0.0,0.0,30,0.00,,---,0.00,VWS V14.01,2013-04-03 12:01:00,
2013-04-03 14:02:00,70.0,36.3,30.12,South,180,0.0,0.0,29,0.00,,---,0.00,VWS V14.01,2013-04-03 12:02:00,
2013-04-03 14:07:00,70.2,36.5,30.12,ENE,68,0.0,0.0,29,0.00,,---,0.00,VWS V14.01,2013-04-03 12:07:00,
2013-04-03 14:08:00,70.2,36.5,30.12,ESE,112,0.0,0.0,29,0.00,,---,0.00,VWS V14.01,2013-04-03 12:08:00,
2013-04-03 14:10:00,70.3,35.7,30.12,SSW,202,0.0,0.0,28,0.00,,---,0.00,VWS V14.01,2013-04-03 12:10:00,
2013-04-03 14:13:00,70.5,36.8,30.12,ENE,68,0.0,0.0,29,0.00,,---,0.00,VWS V14.01,2013-04-03 12:13:00,
2013-04-03 14:16:00,70.9,37.1,30.12,East,90,0.0,0.0,29,0.00,,---,0.00,VWS V14.01,2013-04-03 12:16:00,
2013-04-03 14:18:00,71.1,37.2,30.12,SSE,158,0.0,0.0,29,0.00,,---,0.00,VWS V14.01,2013-04-03 12:18:00,
2013-04-03 14:21:00,70.7,36.9,30.12,ESE,112,0.0,0.0,29,0.00,,---,0.00,VWS V14.01,2013-04-03 12:21:00,
2013-04-03 14:22:00,70.5,35.9,30.12,ENE,68,0.0,0.0,28,0.00,,---,0.00,VWS V14.01,2013-04-03 12:22:00,
2013-04-03 14:25:00,70.2,35.6,30.12,ENE,68,0.0,0.0,28,0.00,,---,0.00,VWS V14.01,2013-04-03 12:25:00,
2013-04-03 14:30:00,70.3,35.7,30.12,SSE,158,0.0,0.0,28,0.00,,---,0.00,VWS V14.01,2013-04-03 12:30:00,
2013-04-03 14:31:00,70.2,34.7,30.12,ESE,112,0.0,0.0,27,0.00,,---,0.00,VWS V14.01,2013-04-03 12:31:00,
2013-04-03 14:32:00,70.2,35.6,30.12,SSE,158,0.0,0.0,28,0.00,,---,0.00,VWS V14.01,2013-04-03 12:32:00,
2013-04-03 14:37:00,70.0,34.5,30.12,ESE,112,0.0,0.0,27,0.00,,---,0.00,VWS V14.01,2013-04-03 12:37:00,
2013-04-03 14:39:00,70.2,35.6,30.12,SE,135,0.0,0.0,28,0.00,,---,0.00,VWS V14.01,2013-04-03 12:39:00,
2013-04-03 14:40:00,70.0,35.4,30.12,SE,135,0.0,0.0,28,0.00,,---,0.00,VWS V14.01,2013-04-03 12:40:00,
2013-04-03 14:41:00,69.8,35.3,30.12,ESE,112,0.0,0.0,28,0.00,,---,0.00,VWS V14.01,2013-04-03 12:41:00,
2013-04-03 14:44:00,69.6,34.2,30.12,ENE,68,0.0,0.0,27,0.00,,---,0.00,VWS V14.01,2013-04-03 12:44:00,
2013-04-03 14:46:00,69.6,34.2,30.12,ENE,68,0.0,0.0,27,0.00,,---,0.00,VWS V14.01,2013-04-03 12:46:00,
2013-04-03 14:47:00,69.8,34.3,30.12,ESE,112,0.0,0.0,27,0.00,,---,0.00,VWS V14.01,2013-04-03 12:47:00,
2013-04-03 14:50:00,70.0,34.5,30.12,SE,135,0.0,0.0,27,0.00,,---,0.00,VWS V14.01,2013-04-03 12:50:00,
2013-04-03 14:52:00,69.8,33.4,30.12,SE,135,0.0,0.0,26,0.00,,---,0.00,VWS V14.01,2013-04-03 12:52:00,
2013-04-03 14:54:00,69.8,32.4,30.12,ESE,112,0.0,0.0,25,0.00,,---,0.00,VWS V14.01,2013-04-03 12:54:00,
2013-04-03 14:57:00,70.3,32.9,30.12,ESE,112,0.0,0.0,25,0.00,,---,0.00,VWS V14.01,2013-04-03 12:57:00,
2013-04-03 15:00:00,70.3,32.9,30.12,SE,135,0.0,0.0,25,0.00,,---,0.00,VWS V14.01,2013-04-03 13:00:00,
2013-04-03 15:02:00,70.3,32.9,30.12,SSE,158,0.0,0.0,25,0.00,,---,0.00,VWS V14.01,2013-04-03 13:02:00,
2013-04-03 15:06:00,70.2,32.7,30.12,ESE,112,0.0,0.0,25,0.00,,---,0.00,VWS V14.01,2013-04-03 13:06:00,
2013-04-03 15:07:00,70.0,32.6,30.12,SE,135,0.0,0.0,25,0.00,,---,0.00,VWS V14.01,2013-04-03 13:07:00,
2013-04-03 15:11:00,70.0,32.6,30.12,ENE,68,0.0,0.0,25,0.00,,---,0.00,VWS V14.01,2013-04-03 13:11:00,
2013-04-03 15:12:00,69.8,33.4,30.12,East,90,0.0,0.0,26,0.00,,---,0.00,VWS V14.01,2013-04-03 13:12:00,
2013-04-03 15:13:00,69.8,32.4,30.12,ESE,112,0.0,0.0,25,0.00,,---,0.00,VWS V14.01,2013-04-03 13:13:00,
2013-04-03 15:16:00,69.6,32.3,30.12,ESE,112,0.0,0.0,25,0.00,,---,0.00,VWS V14.01,2013-04-03 13:16:00,
2013-04-03 15:18:00,69.6,32.3,30.12,ESE,112,0.0,0.0,25,0.00,,---,0.00,VWS V14.01,2013-04-03 13:18:00,
2013-04-03 15:22:00,69.6,33.2,30.12,SSE,158,0.0,0.0,26,0.00,,---,0.00,VWS V14.01,2013-04-03 13:22:00,
2013-04-03 15:23:00,69.6,33.2,30.12,SSE,158,0.0,0.0,26,0.00,,---,0.00,VWS V14.01,2013-04-03 13:23:00,
2013-04-03 15:25:00,69.6,35.1,30.12,ESE,112,0.0,0.0,28,0.00,,---,0.00,VWS V14.01,2013-04-03 13:25:00,
2013-04-03 15:29:00,69.4,36.7,30.12,SE,135,0.0,0.0,30,0.00,,---,0.00,VWS V14.01,2013-04-03 13:29:00,
2013-04-03 15:30:00,69.1,37.2,30.12,SW,225,0.0,0.0,31,0.00,,---,0.00,VWS V14.01,2013-04-03 13:30:00,
2013-04-03 15:31:00,69.1,38.0,30.12,NNW,338,0.0,0.0,32,0.00,,---,0.00,VWS V14.01,2013-04-03 13:31:00,
2013-04-03 15:33:00,69.1,38.0,30.12,ESE,112,0.0,0.0,32,0.00,,---,0.00,VWS V14.01,2013-04-03 13:33:00,
2013-04-03 15:35:00,68.9,37.8,30.12,WNW,292,0.0,0.0,32,0.00,,---,0.00,VWS V14.01,2013-04-03 13:35:00,
2013-04-03 15:37:00,68.7,38.5,30.12,ESE,112,0.0,0.0,33,0.00,,---,0.00,VWS V14.01,2013-04-03 13:37:00,
2013-04-03 15:38:00,68.7,38.5,30.12,SSE,158,0.0,0.0,33,0.00,,---,0.00,VWS V14.01,2013-04-03 13:38:00,
2013-04-03 15:43:00,68.5,37.5,30.12,SE,135,0.0,0.0,32,0.00,,---,0.00,VWS V14.01,2013-04-03 13:43:00,